sensor_id;sensor_type;location;lat;lon;timestamp;P1;durP1;ratioP1;P2;durP2;ratioP2
58950;SDS011;44730;53.158;6.398;2023-03-21T00:01:55;17.05;;;10.52;;
58950;SDS011;44730;53.158;6.398;2023-03-21T00:04:24;16.70;;;10.45;;
58950;SDS011;44730;53.158;6.398;2023-03-21T00:06:51;16.27;;;9.15;;
58950;SDS011;44730;53.158;6.398;2023-03-21T00:09:17;16.95;;;9.95;;
58950;SDS011;44730;53.158;6.398;2023-03-21T00:11:44;18.25;;;9.60;;
58950;SDS011;44730;53.158;6.398;2023-03-21T00:14:10;18.65;;;10.18;;
58950;SDS011;44730;53.158;6.398;2023-03-21T00:16:38;18.52;;;9.93;;
58950;SDS011;44730;53.158;6.398;2023-03-21T00:19:05;18.40;;;10.05;;
58950;SDS011;44730;53.158;6.398;2023-03-21T00:21:33;22.85;;;11.63;;
58950;SDS011;44730;53.158;6.398;2023-03-21T00:24:02;26.40;;;12.43;;
58950;SDS011;44730;53.158;6.398;2023-03-21T00:26:30;26.90;;;11.82;;
58950;SDS011;44730;53.158;6.398;2023-03-21T00:28:56;38.25;;;15.05;;
58950;SDS011;44730;53.158;6.398;2023-03-21T00:31:22;42.10;;;15.68;;
58950;SDS011;44730;53.158;6.398;2023-03-21T00:33:48;49.55;;;17.55;;
58950;SDS011;44730;53.158;6.398;2023-03-21T00:36:14;48.28;;;18.70;;
58950;SDS011;44730;53.158;6.398;2023-03-21T00:38:40;55.30;;;19.80;;
58950;SDS011;44730;53.158;6.398;2023-03-21T00:41:08;55.78;;;21.63;;
58950;SDS011;44730;53.158;6.398;2023-03-21T00:43:35;66.57;;;21.70;;
58950;SDS011;44730;53.158;6.398;2023-03-21T00:46:01;68.22;;;22.25;;
58950;SDS011;44730;53.158;6.398;2023-03-21T00:48:27;59.58;;;21.90;;
58950;SDS011;44730;53.158;6.398;2023-03-21T00:50:54;77.28;;;23.70;;
58950;SDS011;44730;53.158;6.398;2023-03-21T00:53:21;66.10;;;22.95;;
58950;SDS011;44730;53.158;6.398;2023-03-21T00:55:47;65.13;;;20.42;;
58950;SDS011;44730;53.158;6.398;2023-03-21T00:58:14;59.92;;;20.08;;
58950;SDS011;44730;53.158;6.398;2023-03-21T01:00:40;66.95;;;22.52;;
58950;SDS011;44730;53.158;6.398;2023-03-21T01:03:09;82.68;;;25.27;;
58950;SDS011;44730;53.158;6.398;2023-03-21T01:05:37;71.38;;;22.65;;
58950;SDS011;44730;53.158;6.398;2023-03-21T01:08:24;62.25;;;21.85;;
58950;SDS011;44730;53.158;6.398;2023-03-21T01:10:52;65.55;;;20.67;;
58950;SDS011;44730;53.158;6.398;2023-03-21T01:13:18;50.33;;;19.58;;
58950;SDS011;44730;53.158;6.398;2023-03-21T01:15:47;51.58;;;20.55;;
58950;SDS011;44730;53.158;6.398;2023-03-21T01:18:16;51.00;;;20.10;;
58950;SDS011;44730;53.158;6.398;2023-03-21T01:20:43;46.20;;;19.33;;
58950;SDS011;44730;53.158;6.398;2023-03-21T01:23:09;40.70;;;17.50;;
58950;SDS011;44730;53.158;6.398;2023-03-21T01:25:36;29.75;;;14.60;;
58950;SDS011;44730;53.158;6.398;2023-03-21T01:28:02;32.25;;;14.45;;
58950;SDS011;44730;53.158;6.398;2023-03-21T01:30:29;30.13;;;13.38;;
58950;SDS011;44730;53.158;6.398;2023-03-21T01:32:56;32.03;;;14.48;;
58950;SDS011;44730;53.158;6.398;2023-03-21T01:35:21;32.90;;;14.95;;
58950;SDS011;44730;53.158;6.398;2023-03-21T01:37:47;26.55;;;12.63;;
58950;SDS011;44730;53.158;6.398;2023-03-21T01:40:21;35.30;;;14.75;;
58950;SDS011;44730;53.158;6.398;2023-03-21T01:42:51;30.90;;;14.65;;
58950;SDS011;44730;53.158;6.398;2023-03-21T01:48:20;32.72;;;15.82;;
58950;SDS011;44730;53.158;6.398;2023-03-21T01:50:47;33.30;;;16.25;;
58950;SDS011;44730;53.158;6.398;2023-03-21T01:53:15;34.95;;;16.42;;
58950;SDS011;44730;53.158;6.398;2023-03-21T01:55:44;33.78;;;16.45;;
58950;SDS011;44730;53.158;6.398;2023-03-21T01:58:11;34.03;;;16.05;;
58950;SDS011;44730;53.158;6.398;2023-03-21T02:00:45;28.98;;;15.65;;
58950;SDS011;44730;53.158;6.398;2023-03-21T02:03:13;35.00;;;17.05;;
58950;SDS011;44730;53.158;6.398;2023-03-21T02:05:51;32.33;;;15.40;;
58950;SDS011;44730;53.158;6.398;2023-03-21T02:08:24;28.03;;;15.67;;
58950;SDS011;44730;53.158;6.398;2023-03-21T02:10:50;29.42;;;16.35;;
58950;SDS011;44730;53.158;6.398;2023-03-21T02:13:16;29.20;;;15.85;;
58950;SDS011;44730;53.158;6.398;2023-03-21T02:15:47;23.00;;;13.82;;
58950;SDS011;44730;53.158;6.398;2023-03-21T02:18:25;27.40;;;14.80;;
58950;SDS011;44730;53.158;6.398;2023-03-21T02:39:56;22.05;;;12.57;;
58950;SDS011;44730;53.158;6.398;2023-03-21T02:45:10;19.05;;;11.27;;
58950;SDS011;44730;53.158;6.398;2023-03-21T02:47:50;21.08;;;12.52;;
58950;SDS011;44730;53.158;6.398;2023-03-21T02:50:31;18.33;;;11.45;;
58950;SDS011;44730;53.158;6.398;2023-03-21T02:53:06;17.70;;;10.90;;
58950;SDS011;44730;53.158;6.398;2023-03-21T02:55:35;19.98;;;12.82;;
58950;SDS011;44730;53.158;6.398;2023-03-21T02:58:05;20.02;;;12.05;;
58950;SDS011;44730;53.158;6.398;2023-03-21T03:00:33;22.85;;;13.82;;
58950;SDS011;44730;53.158;6.398;2023-03-21T03:03:01;19.80;;;12.55;;
58950;SDS011;44730;53.158;6.398;2023-03-21T03:05:29;18.52;;;11.73;;
58950;SDS011;44730;53.158;6.398;2023-03-21T03:08:05;18.17;;;11.82;;
58950;SDS011;44730;53.158;6.398;2023-03-21T03:16:52;15.68;;;10.30;;
58950;SDS011;44730;53.158;6.398;2023-03-21T03:19:24;17.23;;;10.68;;
58950;SDS011;44730;53.158;6.398;2023-03-21T03:21:57;19.05;;;11.38;;
58950;SDS011;44730;53.158;6.398;2023-03-21T03:24:36;18.95;;;11.35;;
58950;SDS011;44730;53.158;6.398;2023-03-21T03:27:08;21.60;;;12.63;;
58950;SDS011;44730;53.158;6.398;2023-03-21T03:29:38;20.58;;;12.10;;
58950;SDS011;44730;53.158;6.398;2023-03-21T03:32:11;21.10;;;12.63;;
58950;SDS011;44730;53.158;6.398;2023-03-21T03:34:43;20.65;;;12.82;;
58950;SDS011;44730;53.158;6.398;2023-03-21T03:37:16;21.15;;;12.13;;
58950;SDS011;44730;53.158;6.398;2023-03-21T03:40:04;20.45;;;11.75;;
58950;SDS011;44730;53.158;6.398;2023-03-21T03:45:15;20.40;;;11.60;;
58950;SDS011;44730;53.158;6.398;2023-03-21T03:48:17;24.23;;;13.20;;
58950;SDS011;44730;53.158;6.398;2023-03-21T03:50:41;19.15;;;11.27;;
58950;SDS011;44730;53.158;6.398;2023-03-21T03:53:35;18.92;;;11.52;;
58950;SDS011;44730;53.158;6.398;2023-03-21T03:56:08;19.77;;;11.23;;
58950;SDS011;44730;53.158;6.398;2023-03-21T03:58:36;20.33;;;11.60;;
58950;SDS011;44730;53.158;6.398;2023-03-21T04:01:06;20.45;;;11.75;;
58950;SDS011;44730;53.158;6.398;2023-03-21T04:03:33;23.83;;;12.20;;
58950;SDS011;44730;53.158;6.398;2023-03-21T04:06:01;21.90;;;12.70;;
58950;SDS011;44730;53.158;6.398;2023-03-21T04:08:28;20.05;;;11.70;;
58950;SDS011;44730;53.158;6.398;2023-03-21T04:10:54;18.42;;;10.73;;
58950;SDS011;44730;53.158;6.398;2023-03-21T04:13:20;20.10;;;11.32;;
58950;SDS011;44730;53.158;6.398;2023-03-21T04:15:46;19.17;;;11.93;;
58950;SDS011;44730;53.158;6.398;2023-03-21T04:18:12;18.38;;;10.65;;
58950;SDS011;44730;53.158;6.398;2023-03-21T04:20:38;16.77;;;10.38;;
58950;SDS011;44730;53.158;6.398;2023-03-21T04:23:04;15.60;;;9.95;;
58950;SDS011;44730;53.158;6.398;2023-03-21T04:25:34;19.00;;;10.27;;
58950;SDS011;44730;53.158;6.398;2023-03-21T04:28:00;18.23;;;9.50;;
58950;SDS011;44730;53.158;6.398;2023-03-21T04:30:26;16.83;;;10.23;;
58950;SDS011;44730;53.158;6.398;2023-03-21T04:32:52;17.45;;;10.30;;
58950;SDS011;44730;53.158;6.398;2023-03-21T04:35:20;19.90;;;10.05;;
58950;SDS011;44730;53.158;6.398;2023-03-21T04:37:47;17.70;;;10.13;;
58950;SDS011;44730;53.158;6.398;2023-03-21T04:40:12;17.40;;;10.70;;
58950;SDS011;44730;53.158;6.398;2023-03-21T04:42:42;19.70;;;9.38;;
58950;SDS011;44730;53.158;6.398;2023-03-21T04:45:09;17.30;;;10.65;;
58950;SDS011;44730;53.158;6.398;2023-03-21T04:47:35;18.50;;;10.45;;
58950;SDS011;44730;53.158;6.398;2023-03-21T04:50:01;17.88;;;10.40;;
58950;SDS011;44730;53.158;6.398;2023-03-21T04:52:26;20.65;;;11.07;;
58950;SDS011;44730;53.158;6.398;2023-03-21T04:54:52;21.80;;;10.70;;
58950;SDS011;44730;53.158;6.398;2023-03-21T04:57:18;22.90;;;11.32;;
58950;SDS011;44730;53.158;6.398;2023-03-21T04:59:44;19.85;;;10.23;;
58950;SDS011;44730;53.158;6.398;2023-03-21T05:02:10;23.70;;;11.18;;
58950;SDS011;44730;53.158;6.398;2023-03-21T05:04:37;17.77;;;10.40;;
58950;SDS011;44730;53.158;6.398;2023-03-21T05:07:04;20.88;;;11.52;;
58950;SDS011;44730;53.158;6.398;2023-03-21T05:09:30;26.42;;;12.45;;
58950;SDS011;44730;53.158;6.398;2023-03-21T05:11:55;25.02;;;12.73;;
58950;SDS011;44730;53.158;6.398;2023-03-21T05:14:22;23.00;;;12.98;;
58950;SDS011;44730;53.158;6.398;2023-03-21T05:16:50;27.08;;;13.93;;
58950;SDS011;44730;53.158;6.398;2023-03-21T05:19:22;23.50;;;13.02;;
58950;SDS011;44730;53.158;6.398;2023-03-21T05:22:06;24.13;;;13.93;;
58950;SDS011;44730;53.158;6.398;2023-03-21T05:24:33;28.10;;;14.25;;
58950;SDS011;44730;53.158;6.398;2023-03-21T05:27:01;24.60;;;13.32;;
58950;SDS011;44730;53.158;6.398;2023-03-21T05:29:31;25.70;;;14.50;;
58950;SDS011;44730;53.158;6.398;2023-03-21T05:31:57;25.75;;;13.88;;
58950;SDS011;44730;53.158;6.398;2023-03-21T05:34:24;26.65;;;13.65;;
58950;SDS011;44730;53.158;6.398;2023-03-21T05:36:51;25.17;;;13.90;;
58950;SDS011;44730;53.158;6.398;2023-03-21T05:39:17;25.17;;;13.50;;
58950;SDS011;44730;53.158;6.398;2023-03-21T05:41:43;24.20;;;13.68;;
58950;SDS011;44730;53.158;6.398;2023-03-21T05:44:09;25.95;;;13.85;;
58950;SDS011;44730;53.158;6.398;2023-03-21T05:46:35;26.30;;;13.45;;
58950;SDS011;44730;53.158;6.398;2023-03-21T05:49:01;20.95;;;12.32;;
58950;SDS011;44730;53.158;6.398;2023-03-21T05:51:26;26.52;;;13.77;;
58950;SDS011;44730;53.158;6.398;2023-03-21T05:53:52;22.85;;;12.75;;
58950;SDS011;44730;53.158;6.398;2023-03-21T05:56:18;25.05;;;13.73;;
58950;SDS011;44730;53.158;6.398;2023-03-21T05:58:44;19.45;;;11.98;;
58950;SDS011;44730;53.158;6.398;2023-03-21T06:01:10;23.42;;;12.68;;
58950;SDS011;44730;53.158;6.398;2023-03-21T06:03:36;24.88;;;12.48;;
58950;SDS011;44730;53.158;6.398;2023-03-21T06:06:02;25.30;;;11.82;;
58950;SDS011;44730;53.158;6.398;2023-03-21T06:08:29;20.08;;;11.25;;
58950;SDS011;44730;53.158;6.398;2023-03-21T06:10:55;18.70;;;10.88;;
58950;SDS011;44730;53.158;6.398;2023-03-21T06:13:21;17.48;;;9.95;;
58950;SDS011;44730;53.158;6.398;2023-03-21T06:15:47;22.80;;;11.70;;
58950;SDS011;44730;53.158;6.398;2023-03-21T06:18:13;18.55;;;10.60;;
58950;SDS011;44730;53.158;6.398;2023-03-21T06:20:39;16.77;;;10.27;;
58950;SDS011;44730;53.158;6.398;2023-03-21T06:23:05;18.30;;;10.48;;
58950;SDS011;44730;53.158;6.398;2023-03-21T06:25:31;20.90;;;11.90;;
58950;SDS011;44730;53.158;6.398;2023-03-21T06:27:57;18.75;;;11.75;;
58950;SDS011;44730;53.158;6.398;2023-03-21T06:30:22;21.42;;;12.18;;
58950;SDS011;44730;53.158;6.398;2023-03-21T06:32:48;18.83;;;11.82;;
58950;SDS011;44730;53.158;6.398;2023-03-21T06:35:14;19.30;;;12.13;;
58950;SDS011;44730;53.158;6.398;2023-03-21T06:37:41;21.98;;;11.68;;
58950;SDS011;44730;53.158;6.398;2023-03-21T06:40:07;20.70;;;11.98;;
58950;SDS011;44730;53.158;6.398;2023-03-21T06:42:34;21.70;;;12.98;;
58950;SDS011;44730;53.158;6.398;2023-03-21T06:45:00;24.42;;;12.82;;
58950;SDS011;44730;53.158;6.398;2023-03-21T06:47:26;21.70;;;12.55;;
58950;SDS011;44730;53.158;6.398;2023-03-21T06:49:52;21.20;;;12.38;;
58950;SDS011;44730;53.158;6.398;2023-03-21T06:52:17;20.55;;;12.70;;
58950;SDS011;44730;53.158;6.398;2023-03-21T06:54:43;23.75;;;13.07;;
58950;SDS011;44730;53.158;6.398;2023-03-21T06:57:09;19.77;;;11.80;;
58950;SDS011;44730;53.158;6.398;2023-03-21T06:59:35;23.55;;;12.40;;
58950;SDS011;44730;53.158;6.398;2023-03-21T07:02:01;19.67;;;12.32;;
58950;SDS011;44730;53.158;6.398;2023-03-21T07:04:27;19.60;;;12.05;;
58950;SDS011;44730;53.158;6.398;2023-03-21T07:06:53;19.25;;;11.90;;
58950;SDS011;44730;53.158;6.398;2023-03-21T07:09:19;23.15;;;12.95;;
58950;SDS011;44730;53.158;6.398;2023-03-21T07:11:48;19.98;;;12.05;;
58950;SDS011;44730;53.158;6.398;2023-03-21T07:14:18;20.33;;;11.68;;
58950;SDS011;44730;53.158;6.398;2023-03-21T07:16:44;20.77;;;10.80;;
58950;SDS011;44730;53.158;6.398;2023-03-21T07:19:10;19.67;;;11.93;;
58950;SDS011;44730;53.158;6.398;2023-03-21T07:21:36;17.15;;;10.98;;
58950;SDS011;44730;53.158;6.398;2023-03-21T07:24:04;17.60;;;10.15;;
58950;SDS011;44730;53.158;6.398;2023-03-21T07:26:29;18.75;;;11.13;;
58950;SDS011;44730;53.158;6.398;2023-03-21T07:28:57;17.88;;;11.23;;
58950;SDS011;44730;53.158;6.398;2023-03-21T07:31:23;15.55;;;9.82;;
58950;SDS011;44730;53.158;6.398;2023-03-21T07:33:56;15.85;;;9.32;;
58950;SDS011;44730;53.158;6.398;2023-03-21T07:36:22;16.45;;;9.35;;
58950;SDS011;44730;53.158;6.398;2023-03-21T07:38:48;13.80;;;8.85;;
58950;SDS011;44730;53.158;6.398;2023-03-21T07:41:14;13.10;;;8.98;;
58950;SDS011;44730;53.158;6.398;2023-03-21T07:43:39;12.50;;;8.40;;
58950;SDS011;44730;53.158;6.398;2023-03-21T07:46:05;12.70;;;8.52;;
58950;SDS011;44730;53.158;6.398;2023-03-21T07:48:31;12.23;;;7.93;;
58950;SDS011;44730;53.158;6.398;2023-03-21T07:50:57;10.73;;;7.00;;
58950;SDS011;44730;53.158;6.398;2023-03-21T07:53:23;12.10;;;7.32;;
58950;SDS011;44730;53.158;6.398;2023-03-21T07:55:49;9.13;;;6.68;;
58950;SDS011;44730;53.158;6.398;2023-03-21T07:58:16;12.82;;;8.20;;
58950;SDS011;44730;53.158;6.398;2023-03-21T08:00:42;10.02;;;6.82;;
58950;SDS011;44730;53.158;6.398;2023-03-21T08:03:08;8.82;;;6.22;;
58950;SDS011;44730;53.158;6.398;2023-03-21T08:05:35;9.73;;;6.35;;
58950;SDS011;44730;53.158;6.398;2023-03-21T08:08:02;9.82;;;6.30;;
58950;SDS011;44730;53.158;6.398;2023-03-21T08:10:28;10.05;;;6.65;;
58950;SDS011;44730;53.158;6.398;2023-03-21T08:12:54;8.50;;;6.40;;
58950;SDS011;44730;53.158;6.398;2023-03-21T08:15:20;9.77;;;6.78;;
58950;SDS011;44730;53.158;6.398;2023-03-21T08:17:46;9.52;;;6.60;;
58950;SDS011;44730;53.158;6.398;2023-03-21T08:20:13;8.05;;;5.50;;
58950;SDS011;44730;53.158;6.398;2023-03-21T08:22:42;9.52;;;6.90;;
58950;SDS011;44730;53.158;6.398;2023-03-21T08:25:09;8.80;;;6.80;;
58950;SDS011;44730;53.158;6.398;2023-03-21T08:27:38;8.70;;;6.38;;
58950;SDS011;44730;53.158;6.398;2023-03-21T08:30:05;10.15;;;6.85;;
58950;SDS011;44730;53.158;6.398;2023-03-21T08:32:33;10.40;;;6.78;;
58950;SDS011;44730;53.158;6.398;2023-03-21T08:34:59;8.50;;;6.03;;
58950;SDS011;44730;53.158;6.398;2023-03-21T08:37:27;8.27;;;6.03;;
58950;SDS011;44730;53.158;6.398;2023-03-21T08:39:53;9.85;;;6.25;;
58950;SDS011;44730;53.158;6.398;2023-03-21T08:42:19;7.97;;;6.07;;
58950;SDS011;44730;53.158;6.398;2023-03-21T08:44:46;8.15;;;5.82;;
58950;SDS011;44730;53.158;6.398;2023-03-21T08:47:12;7.63;;;5.70;;
58950;SDS011;44730;53.158;6.398;2023-03-21T08:49:38;7.68;;;5.93;;
58950;SDS011;44730;53.158;6.398;2023-03-21T08:52:04;7.68;;;5.47;;
58950;SDS011;44730;53.158;6.398;2023-03-21T08:54:30;8.65;;;6.07;;
58950;SDS011;44730;53.158;6.398;2023-03-21T08:56:56;7.38;;;5.63;;
58950;SDS011;44730;53.158;6.398;2023-03-21T08:59:22;8.10;;;6.25;;
58950;SDS011;44730;53.158;6.398;2023-03-21T09:01:47;9.25;;;7.00;;
58950;SDS011;44730;53.158;6.398;2023-03-21T09:04:13;12.55;;;8.07;;
58950;SDS011;44730;53.158;6.398;2023-03-21T09:06:39;11.90;;;7.10;;
58950;SDS011;44730;53.158;6.398;2023-03-21T09:09:12;10.55;;;7.97;;
58950;SDS011;44730;53.158;6.398;2023-03-21T09:11:39;11.80;;;8.48;;
58950;SDS011;44730;53.158;6.398;2023-03-21T09:14:05;12.55;;;8.73;;
58950;SDS011;44730;53.158;6.398;2023-03-21T09:16:31;14.50;;;9.85;;
58950;SDS011;44730;53.158;6.398;2023-03-21T09:18:58;13.35;;;9.38;;
58950;SDS011;44730;53.158;6.398;2023-03-21T09:21:24;17.35;;;10.60;;
58950;SDS011;44730;53.158;6.398;2023-03-21T09:23:52;17.00;;;11.40;;
58950;SDS011;44730;53.158;6.398;2023-03-21T09:26:24;17.42;;;12.60;;
58950;SDS011;44730;53.158;6.398;2023-03-21T09:28:52;17.20;;;11.75;;
58950;SDS011;44730;53.158;6.398;2023-03-21T09:31:18;16.83;;;12.15;;
58950;SDS011;44730;53.158;6.398;2023-03-21T09:33:50;18.17;;;12.02;;
58950;SDS011;44730;53.158;6.398;2023-03-21T09:36:17;17.73;;;11.73;;
58950;SDS011;44730;53.158;6.398;2023-03-21T09:38:46;19.38;;;13.23;;
58950;SDS011;44730;53.158;6.398;2023-03-21T09:41:19;18.38;;;12.85;;
58950;SDS011;44730;53.158;6.398;2023-03-21T09:47:04;18.38;;;12.32;;
58950;SDS011;44730;53.158;6.398;2023-03-21T09:49:44;19.63;;;13.88;;
58950;SDS011;44730;53.158;6.398;2023-03-21T09:52:20;19.42;;;13.13;;
58950;SDS011;44730;53.158;6.398;2023-03-21T09:54:51;18.85;;;13.40;;
58950;SDS011;44730;53.158;6.398;2023-03-21T09:59:49;19.05;;;13.85;;
58950;SDS011;44730;53.158;6.398;2023-03-21T10:02:35;18.83;;;13.23;;
58950;SDS011;44730;53.158;6.398;2023-03-21T10:05:19;22.38;;;14.23;;
58950;SDS011;44730;53.158;6.398;2023-03-21T10:10:18;22.77;;;14.60;;
58950;SDS011;44730;53.158;6.398;2023-03-21T10:12:51;20.90;;;13.27;;
58950;SDS011;44730;53.158;6.398;2023-03-21T10:15:20;25.30;;;14.38;;
58950;SDS011;44730;53.158;6.398;2023-03-21T10:18:04;20.92;;;14.52;;
58950;SDS011;44730;53.158;6.398;2023-03-21T10:20:33;22.25;;;14.27;;
58950;SDS011;44730;53.158;6.398;2023-03-21T10:23:05;24.83;;;15.50;;
58950;SDS011;44730;53.158;6.398;2023-03-21T10:25:34;20.35;;;12.93;;
58950;SDS011;44730;53.158;6.398;2023-03-21T10:28:03;20.73;;;12.55;;
58950;SDS011;44730;53.158;6.398;2023-03-21T10:30:41;22.52;;;12.57;;
58950;SDS011;44730;53.158;6.398;2023-03-21T10:33:14;18.60;;;12.25;;
58950;SDS011;44730;53.158;6.398;2023-03-21T10:35:44;17.85;;;11.65;;
58950;SDS011;44730;53.158;6.398;2023-03-21T10:38:15;18.92;;;10.93;;
58950;SDS011;44730;53.158;6.398;2023-03-21T10:40:44;18.10;;;12.15;;
58950;SDS011;44730;53.158;6.398;2023-03-21T10:45:47;21.63;;;12.45;;
58950;SDS011;44730;53.158;6.398;2023-03-21T10:48:13;18.70;;;12.35;;
58950;SDS011;44730;53.158;6.398;2023-03-21T10:50:39;20.35;;;12.15;;
58950;SDS011;44730;53.158;6.398;2023-03-21T10:53:12;22.50;;;11.50;;
58950;SDS011;44730;53.158;6.398;2023-03-21T10:55:45;20.30;;;11.52;;
58950;SDS011;44730;53.158;6.398;2023-03-21T10:58:16;13.52;;;9.70;;
58950;SDS011;44730;53.158;6.398;2023-03-21T11:00:49;16.85;;;10.57;;
58950;SDS011;44730;53.158;6.398;2023-03-21T11:03:27;13.85;;;9.13;;
58950;SDS011;44730;53.158;6.398;2023-03-21T11:06:17;13.13;;;8.80;;
58950;SDS011;44730;53.158;6.398;2023-03-21T11:09:05;14.85;;;9.27;;
58950;SDS011;44730;53.158;6.398;2023-03-21T11:16:57;13.18;;;8.63;;
58950;SDS011;44730;53.158;6.398;2023-03-21T11:19:30;11.02;;;8.23;;
58950;SDS011;44730;53.158;6.398;2023-03-21T11:21:57;12.35;;;8.45;;
58950;SDS011;44730;53.158;6.398;2023-03-21T11:24:30;13.40;;;8.25;;
58950;SDS011;44730;53.158;6.398;2023-03-21T11:26:57;12.93;;;8.52;;
58950;SDS011;44730;53.158;6.398;2023-03-21T11:29:32;13.05;;;8.48;;
58950;SDS011;44730;53.158;6.398;2023-03-21T11:32:20;11.38;;;7.93;;
58950;SDS011;44730;53.158;6.398;2023-03-21T11:35:05;11.45;;;7.97;;
58950;SDS011;44730;53.158;6.398;2023-03-21T11:37:50;11.77;;;8.23;;
58950;SDS011;44730;53.158;6.398;2023-03-21T11:40:22;11.57;;;7.65;;
58950;SDS011;44730;53.158;6.398;2023-03-21T11:42:49;11.18;;;7.72;;
58950;SDS011;44730;53.158;6.398;2023-03-21T11:45:21;11.95;;;8.00;;
58950;SDS011;44730;53.158;6.398;2023-03-21T11:47:55;11.48;;;8.07;;
58950;SDS011;44730;53.158;6.398;2023-03-21T11:52:58;10.70;;;7.72;;
58950;SDS011;44730;53.158;6.398;2023-03-21T12:06:36;13.40;;;8.02;;
58950;SDS011;44730;53.158;6.398;2023-03-21T12:12:13;12.30;;;8.43;;
58950;SDS011;44730;53.158;6.398;2023-03-21T12:15:07;10.70;;;8.00;;
58950;SDS011;44730;53.158;6.398;2023-03-21T12:20:28;15.80;;;8.13;;
58950;SDS011;44730;53.158;6.398;2023-03-21T12:25:58;11.63;;;7.65;;
58950;SDS011;44730;53.158;6.398;2023-03-21T12:37:01;10.07;;;7.18;;
58950;SDS011;44730;53.158;6.398;2023-03-21T12:39:36;9.55;;;7.43;;
58950;SDS011;44730;53.158;6.398;2023-03-21T12:44:59;11.32;;;7.30;;
58950;SDS011;44730;53.158;6.398;2023-03-21T12:47:29;13.07;;;7.93;;
58950;SDS011;44730;53.158;6.398;2023-03-21T12:52:33;13.02;;;7.90;;
58950;SDS011;44730;53.158;6.398;2023-03-21T12:55:06;9.73;;;7.55;;
58950;SDS011;44730;53.158;6.398;2023-03-21T12:58:03;12.60;;;7.10;;
58950;SDS011;44730;53.158;6.398;2023-03-21T13:00:43;11.55;;;7.10;;
58950;SDS011;44730;53.158;6.398;2023-03-21T13:03:13;13.05;;;7.68;;
58950;SDS011;44730;53.158;6.398;2023-03-21T13:05:53;10.05;;;7.28;;
58950;SDS011;44730;53.158;6.398;2023-03-21T13:08:26;11.95;;;7.50;;
58950;SDS011;44730;53.158;6.398;2023-03-21T13:10:56;9.63;;;7.53;;
58950;SDS011;44730;53.158;6.398;2023-03-21T13:13:43;11.93;;;8.13;;
58950;SDS011;44730;53.158;6.398;2023-03-21T13:19:20;9.90;;;7.28;;
58950;SDS011;44730;53.158;6.398;2023-03-21T13:24:47;11.93;;;7.97;;
58950;SDS011;44730;53.158;6.398;2023-03-21T13:27:37;9.65;;;7.78;;
58950;SDS011;44730;53.158;6.398;2023-03-21T13:32:50;10.32;;;7.45;;
58950;SDS011;44730;53.158;6.398;2023-03-21T13:35:25;10.90;;;7.70;;
58950;SDS011;44730;53.158;6.398;2023-03-21T13:38:09;11.07;;;7.90;;
58950;SDS011;44730;53.158;6.398;2023-03-21T13:40:56;10.75;;;8.43;;
58950;SDS011;44730;53.158;6.398;2023-03-21T13:46:09;10.10;;;7.57;;
58950;SDS011;44730;53.158;6.398;2023-03-21T13:51:12;11.57;;;8.27;;
58950;SDS011;44730;53.158;6.398;2023-03-21T13:53:41;12.68;;;8.18;;
58950;SDS011;44730;53.158;6.398;2023-03-21T13:56:23;10.85;;;8.18;;
58950;SDS011;44730;53.158;6.398;2023-03-21T13:58:50;12.48;;;8.38;;
58950;SDS011;44730;53.158;6.398;2023-03-21T14:01:20;11.40;;;9.05;;
58950;SDS011;44730;53.158;6.398;2023-03-21T14:03:57;10.63;;;8.45;;
58950;SDS011;44730;53.158;6.398;2023-03-21T14:06:25;12.80;;;8.45;;
58950;SDS011;44730;53.158;6.398;2023-03-21T14:09:02;10.85;;;7.88;;
58950;SDS011;44730;53.158;6.398;2023-03-21T14:11:29;11.95;;;9.18;;
58950;SDS011;44730;53.158;6.398;2023-03-21T14:13:57;12.00;;;9.10;;
58950;SDS011;44730;53.158;6.398;2023-03-21T14:16:25;10.93;;;9.10;;
58950;SDS011;44730;53.158;6.398;2023-03-21T14:19:02;10.77;;;9.07;;
58950;SDS011;44730;53.158;6.398;2023-03-21T14:21:30;11.48;;;9.25;;
58950;SDS011;44730;53.158;6.398;2023-03-21T14:24:05;11.20;;;9.77;;
58950;SDS011;44730;53.158;6.398;2023-03-21T14:26:39;12.23;;;10.02;;
58950;SDS011;44730;53.158;6.398;2023-03-21T14:29:07;12.65;;;9.35;;
58950;SDS011;44730;53.158;6.398;2023-03-21T14:31:39;12.35;;;9.40;;
58950;SDS011;44730;53.158;6.398;2023-03-21T14:34:06;12.55;;;9.00;;
58950;SDS011;44730;53.158;6.398;2023-03-21T14:36:36;12.15;;;9.18;;
58950;SDS011;44730;53.158;6.398;2023-03-21T14:39:05;10.32;;;8.82;;
58950;SDS011;44730;53.158;6.398;2023-03-21T14:41:50;11.60;;;9.38;;
58950;SDS011;44730;53.158;6.398;2023-03-21T14:44:26;10.32;;;9.20;;
58950;SDS011;44730;53.158;6.398;2023-03-21T14:46:59;13.75;;;10.52;;
58950;SDS011;44730;53.158;6.398;2023-03-21T14:49:36;11.50;;;9.65;;
58950;SDS011;44730;53.158;6.398;2023-03-21T14:52:03;11.45;;;9.40;;
58950;SDS011;44730;53.158;6.398;2023-03-21T14:54:34;12.40;;;9.80;;
58950;SDS011;44730;53.158;6.398;2023-03-21T14:57:04;10.98;;;9.80;;
58950;SDS011;44730;53.158;6.398;2023-03-21T14:59:35;10.60;;;9.43;;
58950;SDS011;44730;53.158;6.398;2023-03-21T15:02:03;12.63;;;9.77;;
58950;SDS011;44730;53.158;6.398;2023-03-21T15:04:47;11.85;;;9.48;;
58950;SDS011;44730;53.158;6.398;2023-03-21T15:09:57;12.32;;;9.60;;
58950;SDS011;44730;53.158;6.398;2023-03-21T15:12:29;13.82;;;9.95;;
58950;SDS011;44730;53.158;6.398;2023-03-21T15:14:55;12.05;;;9.32;;
58950;SDS011;44730;53.158;6.398;2023-03-21T15:17:23;11.30;;;10.10;;
58950;SDS011;44730;53.158;6.398;2023-03-21T15:19:50;13.32;;;9.43;;
58950;SDS011;44730;53.158;6.398;2023-03-21T15:22:23;12.98;;;9.15;;
58950;SDS011;44730;53.158;6.398;2023-03-21T15:25:02;11.45;;;10.05;;
58950;SDS011;44730;53.158;6.398;2023-03-21T15:27:32;13.80;;;9.55;;
58950;SDS011;44730;53.158;6.398;2023-03-21T15:30:01;12.93;;;9.40;;
58950;SDS011;44730;53.158;6.398;2023-03-21T15:32:29;11.73;;;9.90;;
58950;SDS011;44730;53.158;6.398;2023-03-21T15:34:55;12.15;;;9.48;;
58950;SDS011;44730;53.158;6.398;2023-03-21T15:37:33;12.13;;;9.57;;
58950;SDS011;44730;53.158;6.398;2023-03-21T15:42:36;12.38;;;9.20;;
58950;SDS011;44730;53.158;6.398;2023-03-21T15:45:14;12.75;;;9.68;;
58950;SDS011;44730;53.158;6.398;2023-03-21T15:52:51;15.93;;;10.52;;
58950;SDS011;44730;53.158;6.398;2023-03-21T15:55:22;15.27;;;10.02;;
58950;SDS011;44730;53.158;6.398;2023-03-21T15:57:52;13.80;;;10.30;;
58950;SDS011;44730;53.158;6.398;2023-03-21T16:03:14;12.98;;;10.38;;
58950;SDS011;44730;53.158;6.398;2023-03-21T16:05:59;14.32;;;10.05;;
58950;SDS011;44730;53.158;6.398;2023-03-21T16:08:26;12.90;;;9.77;;
58950;SDS011;44730;53.158;6.398;2023-03-21T16:10:53;14.50;;;10.85;;
58950;SDS011;44730;53.158;6.398;2023-03-21T16:13:29;13.60;;;10.73;;
58950;SDS011;44730;53.158;6.398;2023-03-21T16:15:55;15.27;;;10.73;;
58950;SDS011;44730;53.158;6.398;2023-03-21T16:18:21;13.95;;;9.98;;
58950;SDS011;44730;53.158;6.398;2023-03-21T16:20:46;13.68;;;9.93;;
58950;SDS011;44730;53.158;6.398;2023-03-21T16:23:14;14.82;;;10.20;;
58950;SDS011;44730;53.158;6.398;2023-03-21T16:25:40;12.80;;;10.35;;
58950;SDS011;44730;53.158;6.398;2023-03-21T16:28:14;13.20;;;10.35;;
58950;SDS011;44730;53.158;6.398;2023-03-21T16:30:41;16.27;;;10.57;;
58950;SDS011;44730;53.158;6.398;2023-03-21T16:33:10;16.13;;;10.23;;
58950;SDS011;44730;53.158;6.398;2023-03-21T16:35:36;15.52;;;11.10;;
58950;SDS011;44730;53.158;6.398;2023-03-21T16:38:02;17.45;;;11.13;;